sensor_id;sensor_type;location;lat;lon;timestamp;temperature;humidity
336;DHT22;156;48.738;9.228;2023-07-08T00:02:08;22.70;1.00
336;DHT22;156;48.738;9.228;2023-07-08T00:04:35;22.70;1.00
336;DHT22;156;48.738;9.228;2023-07-08T00:07:02;22.70;1.00
336;DHT22;156;48.738;9.228;2023-07-08T00:09:29;22.70;1.00
336;DHT22;156;48.738;9.228;2023-07-08T00:11:56;22.60;1.00
336;DHT22;156;48.738;9.228;2023-07-08T00:14:25;22.50;1.00
336;DHT22;156;48.738;9.228;2023-07-08T00:16:52;22.50;1.00
336;DHT22;156;48.738;9.228;2023-07-08T00:19:19;22.60;1.00
336;DHT22;156;48.738;9.228;2023-07-08T00:21:49;22.50;1.00
336;DHT22;156;48.738;9.228;2023-07-08T00:24:17;22.50;1.00
336;DHT22;156;48.738;9.228;2023-07-08T00:26:44;22.50;1.00
336;DHT22;156;48.738;9.228;2023-07-08T00:29:12;22.40;1.00
336;DHT22;156;48.738;9.228;2023-07-08T00:31:41;22.50;1.00
336;DHT22;156;48.738;9.228;2023-07-08T00:34:10;22.40;1.00
336;DHT22;156;48.738;9.228;2023-07-08T00:36:38;22.50;1.00
336;DHT22;156;48.738;9.228;2023-07-08T00:39:13;22.40;1.00
336;DHT22;156;48.738;9.228;2023-07-08T00:41:42;22.30;1.00
336;DHT22;156;48.738;9.228;2023-07-08T00:44:11;22.30;1.00
336;DHT22;156;48.738;9.228;2023-07-08T00:46:48;22.40;1.00
336;DHT22;156;48.738;9.228;2023-07-08T00:49:28;22.30;1.00
336;DHT22;156;48.738;9.228;2023-07-08T00:52:16;22.30;1.00
336;DHT22;156;48.738;9.228;2023-07-08T00:54:43;22.20;1.00
336;DHT22;156;48.738;9.228;2023-07-08T00:57:10;22.20;1.00
336;DHT22;156;48.738;9.228;2023-07-08T00:59:40;22.20;1.00
336;DHT22;156;48.738;9.228;2023-07-08T01:02:12;22.20;1.00
336;DHT22;156;48.738;9.228;2023-07-08T01:04:47;22.10;1.00
336;DHT22;156;48.738;9.228;2023-07-08T01:07:15;21.90;1.00
336;DHT22;156;48.738;9.228;2023-07-08T01:09:51;21.80;1.00
336;DHT22;156;48.738;9.228;2023-07-08T01:12:22;21.70;1.00
336;DHT22;156;48.738;9.228;2023-07-08T01:14:51;21.80;1.00
336;DHT22;156;48.738;9.228;2023-07-08T01:17:22;21.80;1.00
336;DHT22;156;48.738;9.228;2023-07-08T01:19:50;21.80;1.00
336;DHT22;156;48.738;9.228;2023-07-08T01:22:22;21.90;1.00
336;DHT22;156;48.738;9.228;2023-07-08T01:24:49;21.90;1.00
336;DHT22;156;48.738;9.228;2023-07-08T01:27:18;21.90;1.00
336;DHT22;156;48.738;9.228;2023-07-08T01:29:46;21.90;1.00
336;DHT22;156;48.738;9.228;2023-07-08T01:32:14;21.90;1.00
336;DHT22;156;48.738;9.228;2023-07-08T01:34:44;21.90;1.00
336;DHT22;156;48.738;9.228;2023-07-08T01:37:30;21.90;1.00
336;DHT22;156;48.738;9.228;2023-07-08T01:39:57;21.90;1.00
336;DHT22;156;48.738;9.228;2023-07-08T01:42:24;21.90;1.00
336;DHT22;156;48.738;9.228;2023-07-08T01:44:51;21.90;1.00
336;DHT22;156;48.738;9.228;2023-07-08T01:47:20;21.90;1.00
336;DHT22;156;48.738;9.228;2023-07-08T01:49:49;21.80;1.00
336;DHT22;156;48.738;9.228;2023-07-08T01:52:17;21.80;1.00
336;DHT22;156;48.738;9.228;2023-07-08T01:54:54;21.70;1.00
336;DHT22;156;48.738;9.228;2023-07-08T01:57:21;21.70;1.00
336;DHT22;156;48.738;9.228;2023-07-08T01:59:48;21.60;1.00
336;DHT22;156;48.738;9.228;2023-07-08T02:02:15;21.60;1.00
336;DHT22;156;48.738;9.228;2023-07-08T02:04:43;21.50;1.00
336;DHT22;156;48.738;9.228;2023-07-08T02:07:11;21.50;1.00
336;DHT22;156;48.738;9.228;2023-07-08T02:09:38;21.50;1.00
336;DHT22;156;48.738;9.228;2023-07-08T02:12:07;21.40;1.00
336;DHT22;156;48.738;9.228;2023-07-08T02:14:34;21.40;1.00
336;DHT22;156;48.738;9.228;2023-07-08T02:17:01;21.40;1.00
336;DHT22;156;48.738;9.228;2023-07-08T02:19:31;21.30;1.00
336;DHT22;156;48.738;9.228;2023-07-08T02:21:58;21.30;1.00
336;DHT22;156;48.738;9.228;2023-07-08T02:24:26;21.30;1.00
336;DHT22;156;48.738;9.228;2023-07-08T02:26:52;21.10;1.00
336;DHT22;156;48.738;9.228;2023-07-08T02:29:21;21.10;1.00
336;DHT22;156;48.738;9.228;2023-07-08T02:31:48;21.20;1.00
336;DHT22;156;48.738;9.228;2023-07-08T02:34:14;21.10;1.00
336;DHT22;156;48.738;9.228;2023-07-08T02:36:41;21.10;1.00
336;DHT22;156;48.738;9.228;2023-07-08T02:39:09;21.00;1.00
336;DHT22;156;48.738;9.228;2023-07-08T02:41:37;21.10;1.00
336;DHT22;156;48.738;9.228;2023-07-08T02:44:04;21.10;1.00
336;DHT22;156;48.738;9.228;2023-07-08T02:46:32;21.10;1.00
336;DHT22;156;48.738;9.228;2023-07-08T02:48:59;21.10;1.00
336;DHT22;156;48.738;9.228;2023-07-08T02:51:26;21.10;1.00
336;DHT22;156;48.738;9.228;2023-07-08T02:53:54;21.20;1.00
336;DHT22;156;48.738;9.228;2023-07-08T02:56:21;21.20;1.00
336;DHT22;156;48.738;9.228;2023-07-08T02:58:48;21.20;1.00
336;DHT22;156;48.738;9.228;2023-07-08T03:01:15;21.10;1.00
336;DHT22;156;48.738;9.228;2023-07-08T03:03:44;21.10;1.00
336;DHT22;156;48.738;9.228;2023-07-08T03:06:11;21.10;1.00
336;DHT22;156;48.738;9.228;2023-07-08T03:08:38;21.00;1.00
336;DHT22;156;48.738;9.228;2023-07-08T03:11:07;20.70;1.00
336;DHT22;156;48.738;9.228;2023-07-08T03:13:34;20.50;1.00
336;DHT22;156;48.738;9.228;2023-07-08T03:16:02;20.40;1.00
336;DHT22;156;48.738;9.228;2023-07-08T03:18:34;20.40;1.00
336;DHT22;156;48.738;9.228;2023-07-08T03:21:13;20.30;1.00
336;DHT22;156;48.738;9.228;2023-07-08T03:23:40;20.30;1.00
336;DHT22;156;48.738;9.228;2023-07-08T03:26:09;20.30;1.00
336;DHT22;156;48.738;9.228;2023-07-08T03:28:41;20.40;1.00
336;DHT22;156;48.738;9.228;2023-07-08T03:31:09;20.50;1.00
336;DHT22;156;48.738;9.228;2023-07-08T03:33:36;20.70;1.00
336;DHT22;156;48.738;9.228;2023-07-08T03:36:04;20.70;1.00
336;DHT22;156;48.738;9.228;2023-07-08T03:38:32;20.70;1.00
336;DHT22;156;48.738;9.228;2023-07-08T03:40:59;20.80;1.00
336;DHT22;156;48.738;9.228;2023-07-08T03:43:26;20.80;1.00
336;DHT22;156;48.738;9.228;2023-07-08T03:45:53;20.80;1.00
336;DHT22;156;48.738;9.228;2023-07-08T03:48:20;20.80;1.00
336;DHT22;156;48.738;9.228;2023-07-08T03:50:47;20.80;1.00
336;DHT22;156;48.738;9.228;2023-07-08T03:53:14;20.90;1.00
336;DHT22;156;48.738;9.228;2023-07-08T03:55:42;20.90;1.00
336;DHT22;156;48.738;9.228;2023-07-08T03:58:09;20.90;1.00
336;DHT22;156;48.738;9.228;2023-07-08T04:00:36;21.00;1.00
336;DHT22;156;48.738;9.228;2023-07-08T04:03:03;21.00;1.00
336;DHT22;156;48.738;9.228;2023-07-08T04:05:32;21.10;1.00
336;DHT22;156;48.738;9.228;2023-07-08T04:07:58;21.10;1.00
336;DHT22;156;48.738;9.228;2023-07-08T04:10:25;21.10;1.00
336;DHT22;156;48.738;9.228;2023-07-08T04:12:54;21.20;1.00
336;DHT22;156;48.738;9.228;2023-07-08T04:15:23;21.10;1.00
336;DHT22;156;48.738;9.228;2023-07-08T04:17:51;21.20;1.00
336;DHT22;156;48.738;9.228;2023-07-08T04:20:21;21.20;1.00
336;DHT22;156;48.738;9.228;2023-07-08T04:22:48;21.30;1.00
336;DHT22;156;48.738;9.228;2023-07-08T04:25:15;21.30;1.00
336;DHT22;156;48.738;9.228;2023-07-08T04:27:42;21.40;1.00
336;DHT22;156;48.738;9.228;2023-07-08T04:30:20;21.50;1.00
336;DHT22;156;48.738;9.228;2023-07-08T04:32:47;21.60;1.00
336;DHT22;156;48.738;9.228;2023-07-08T04:35:17;21.60;1.00
336;DHT22;156;48.738;9.228;2023-07-08T04:37:44;21.70;1.00
336;DHT22;156;48.738;9.228;2023-07-08T04:40:17;21.70;1.00
336;DHT22;156;48.738;9.228;2023-07-08T04:42:48;21.70;1.00
336;DHT22;156;48.738;9.228;2023-07-08T04:45:17;21.90;1.00
336;DHT22;156;48.738;9.228;2023-07-08T04:47:45;21.90;1.00
336;DHT22;156;48.738;9.228;2023-07-08T04:50:18;21.90;1.00
336;DHT22;156;48.738;9.228;2023-07-08T04:52:45;21.90;1.00
336;DHT22;156;48.738;9.228;2023-07-08T04:55:13;22.00;1.00
336;DHT22;156;48.738;9.228;2023-07-08T04:57:40;22.00;1.00
336;DHT22;156;48.738;9.228;2023-07-08T05:00:11;22.00;1.00
336;DHT22;156;48.738;9.228;2023-07-08T05:02:42;21.90;1.00
336;DHT22;156;48.738;9.228;2023-07-08T05:05:09;21.80;1.00
336;DHT22;156;48.738;9.228;2023-07-08T05:07:36;21.80;1.00
336;DHT22;156;48.738;9.228;2023-07-08T05:10:06;21.80;1.00
336;DHT22;156;48.738;9.228;2023-07-08T05:12:33;21.80;1.00
336;DHT22;156;48.738;9.228;2023-07-08T05:15:00;21.80;1.00
336;DHT22;156;48.738;9.228;2023-07-08T05:17:27;21.90;1.00
336;DHT22;156;48.738;9.228;2023-07-08T05:19:58;22.00;1.00
336;DHT22;156;48.738;9.228;2023-07-08T05:22:26;22.00;1.00
336;DHT22;156;48.738;9.228;2023-07-08T05:24:53;21.90;1.00
336;DHT22;156;48.738;9.228;2023-07-08T05:27:21;22.00;1.00
336;DHT22;156;48.738;9.228;2023-07-08T05:29:51;22.10;1.00
336;DHT22;156;48.738;9.228;2023-07-08T05:32:19;22.10;1.00
336;DHT22;156;48.738;9.228;2023-07-08T05:34:46;21.80;1.00
336;DHT22;156;48.738;9.228;2023-07-08T05:37:16;21.70;1.00
336;DHT22;156;48.738;9.228;2023-07-08T05:39:44;21.60;1.00
336;DHT22;156;48.738;9.228;2023-07-08T05:42:12;21.60;1.00
336;DHT22;156;48.738;9.228;2023-07-08T05:44:39;21.50;1.00
336;DHT22;156;48.738;9.228;2023-07-08T05:47:06;21.60;1.00
336;DHT22;156;48.738;9.228;2023-07-08T05:49:33;21.70;1.00
336;DHT22;156;48.738;9.228;2023-07-08T05:52:00;21.70;1.00
336;DHT22;156;48.738;9.228;2023-07-08T05:54:33;21.70;1.00
336;DHT22;156;48.738;9.228;2023-07-08T05:57:00;21.80;1.00
336;DHT22;156;48.738;9.228;2023-07-08T05:59:26;21.80;1.00
336;DHT22;156;48.738;9.228;2023-07-08T06:01:53;21.90;1.00
336;DHT22;156;48.738;9.228;2023-07-08T06:04:20;21.90;1.00
336;DHT22;156;48.738;9.228;2023-07-08T06:06:47;22.00;1.00
336;DHT22;156;48.738;9.228;2023-07-08T06:09:14;22.10;1.00
336;DHT22;156;48.738;9.228;2023-07-08T06:11:43;22.20;1.00
336;DHT22;156;48.738;9.228;2023-07-08T06:14:10;22.30;1.00
336;DHT22;156;48.738;9.228;2023-07-08T06:16:37;22.40;1.00
336;DHT22;156;48.738;9.228;2023-07-08T06:19:03;22.40;1.00
336;DHT22;156;48.738;9.228;2023-07-08T06:21:31;22.50;1.00
336;DHT22;156;48.738;9.228;2023-07-08T06:24:00;22.60;1.00
336;DHT22;156;48.738;9.228;2023-07-08T06:26:27;22.80;1.00
336;DHT22;156;48.738;9.228;2023-07-08T06:28:58;22.90;1.00
336;DHT22;156;48.738;9.228;2023-07-08T06:31:25;23.10;1.00
336;DHT22;156;48.738;9.228;2023-07-08T06:33:52;23.30;1.00
336;DHT22;156;48.738;9.228;2023-07-08T06:36:19;23.40;1.00
336;DHT22;156;48.738;9.228;2023-07-08T06:38:46;23.50;1.00
336;DHT22;156;48.738;9.228;2023-07-08T06:41:13;23.60;1.00
336;DHT22;156;48.738;9.228;2023-07-08T06:43:40;23.70;1.00
336;DHT22;156;48.738;9.228;2023-07-08T06:46:08;23.50;1.00
336;DHT22;156;48.738;9.228;2023-07-08T06:48:38;23.40;1.00
336;DHT22;156;48.738;9.228;2023-07-08T06:51:06;23.60;1.00
336;DHT22;156;48.738;9.228;2023-07-08T06:53:33;23.70;1.00
336;DHT22;156;48.738;9.228;2023-07-08T06:56:00;23.70;1.00
336;DHT22;156;48.738;9.228;2023-07-08T06:58:27;23.70;1.00
336;DHT22;156;48.738;9.228;2023-07-08T07:00:56;23.80;1.00
336;DHT22;156;48.738;9.228;2023-07-08T07:03:28;23.70;1.00
336;DHT22;156;48.738;9.228;2023-07-08T07:05:55;23.70;1.00
336;DHT22;156;48.738;9.228;2023-07-08T07:08:22;23.60;1.00
336;DHT22;156;48.738;9.228;2023-07-08T07:10:49;23.70;1.00
336;DHT22;156;48.738;9.228;2023-07-08T07:13:18;23.60;1.00
336;DHT22;156;48.738;9.228;2023-07-08T07:15:45;23.40;1.00
336;DHT22;156;48.738;9.228;2023-07-08T07:18:12;23.40;1.00
336;DHT22;156;48.738;9.228;2023-07-08T07:20:48;23.60;1.00
336;DHT22;156;48.738;9.228;2023-07-08T07:23:15;23.60;1.00
336;DHT22;156;48.738;9.228;2023-07-08T07:25:46;23.70;1.00
336;DHT22;156;48.738;9.228;2023-07-08T07:28:14;23.90;1.00
336;DHT22;156;48.738;9.228;2023-07-08T07:30:42;24.10;1.00
336;DHT22;156;48.738;9.228;2023-07-08T07:33:09;24.20;1.00
336;DHT22;156;48.738;9.228;2023-07-08T07:35:40;24.20;1.00
336;DHT22;156;48.738;9.228;2023-07-08T07:38:09;24.20;1.00
336;DHT22;156;48.738;9.228;2023-07-08T07:40:36;24.20;1.00
336;DHT22;156;48.738;9.228;2023-07-08T07:43:05;24.20;1.00
336;DHT22;156;48.738;9.228;2023-07-08T07:45:32;24.40;1.00
336;DHT22;156;48.738;9.228;2023-07-08T07:47:59;24.60;1.00
336;DHT22;156;48.738;9.228;2023-07-08T07:50:27;24.60;1.00
336;DHT22;156;48.738;9.228;2023-07-08T07:52:57;24.80;1.00
336;DHT22;156;48.738;9.228;2023-07-08T07:55:26;24.90;1.00
336;DHT22;156;48.738;9.228;2023-07-08T07:57:52;24.90;1.00
336;DHT22;156;48.738;9.228;2023-07-08T08:00:19;25.00;1.00
336;DHT22;156;48.738;9.228;2023-07-08T08:02:46;25.10;1.00
336;DHT22;156;48.738;9.228;2023-07-08T08:05:14;25.10;1.00
336;DHT22;156;48.738;9.228;2023-07-08T08:07:43;25.30;1.00
336;DHT22;156;48.738;9.228;2023-07-08T08:10:10;25.40;1.00
336;DHT22;156;48.738;9.228;2023-07-08T08:12:39;25.50;1.00
336;DHT22;156;48.738;9.228;2023-07-08T08:15:07;25.40;1.00
336;DHT22;156;48.738;9.228;2023-07-08T08:17:35;25.40;1.00
336;DHT22;156;48.738;9.228;2023-07-08T08:20:02;25.30;1.00
336;DHT22;156;48.738;9.228;2023-07-08T08:22:29;25.30;1.00
336;DHT22;156;48.738;9.228;2023-07-08T08:24:56;25.30;1.00
336;DHT22;156;48.738;9.228;2023-07-08T08:27:23;25.20;1.00
336;DHT22;156;48.738;9.228;2023-07-08T08:29:51;25.10;1.00
336;DHT22;156;48.738;9.228;2023-07-08T08:32:18;25.20;1.00
336;DHT22;156;48.738;9.228;2023-07-08T08:34:45;25.00;1.00
336;DHT22;156;48.738;9.228;2023-07-08T08:37:12;25.20;1.00
336;DHT22;156;48.738;9.228;2023-07-08T08:39:39;25.30;1.00
336;DHT22;156;48.738;9.228;2023-07-08T08:42:18;25.40;1.00
336;DHT22;156;48.738;9.228;2023-07-08T08:44:47;25.40;1.00
336;DHT22;156;48.738;9.228;2023-07-08T08:47:24;25.50;1.00
336;DHT22;156;48.738;9.228;2023-07-08T08:49:58;25.60;1.00
336;DHT22;156;48.738;9.228;2023-07-08T08:52:30;25.70;1.00
336;DHT22;156;48.738;9.228;2023-07-08T08:54:57;25.80;1.00
336;DHT22;156;48.738;9.228;2023-07-08T08:57:32;26.00;1.00
336;DHT22;156;48.738;9.228;2023-07-08T09:00:07;25.90;1.00
336;DHT22;156;48.738;9.228;2023-07-08T09:02:42;26.00;1.00
336;DHT22;156;48.738;9.228;2023-07-08T09:05:14;26.30;1.00
336;DHT22;156;48.738;9.228;2023-07-08T09:07:47;26.40;1.00
336;DHT22;156;48.738;9.228;2023-07-08T09:10:29;26.50;1.00
336;DHT22;156;48.738;9.228;2023-07-08T09:13:02;26.50;1.00
336;DHT22;156;48.738;9.228;2023-07-08T09:15:32;26.60;1.00
336;DHT22;156;48.738;9.228;2023-07-08T09:18:10;26.80;1.00
336;DHT22;156;48.738;9.228;2023-07-08T09:20:39;26.60;1.00
336;DHT22;156;48.738;9.228;2023-07-08T09:23:15;26.70;1.00
336;DHT22;156;48.738;9.228;2023-07-08T09:25:49;26.70;1.00
336;DHT22;156;48.738;9.228;2023-07-08T09:28:17;26.50;1.00
336;DHT22;156;48.738;9.228;2023-07-08T09:30:46;26.40;1.00
336;DHT22;156;48.738;9.228;2023-07-08T09:33:15;26.30;1.00
336;DHT22;156;48.738;9.228;2023-07-08T09:35:45;26.40;1.00
336;DHT22;156;48.738;9.228;2023-07-08T09:38:16;26.50;1.00
336;DHT22;156;48.738;9.228;2023-07-08T09:40:47;26.60;1.00
336;DHT22;156;48.738;9.228;2023-07-08T09:43:23;26.80;1.00
336;DHT22;156;48.738;9.228;2023-07-08T09:45:52;26.70;1.00
336;DHT22;156;48.738;9.228;2023-07-08T09:48:26;26.70;1.00
336;DHT22;156;48.738;9.228;2023-07-08T09:50:56;26.60;1.00
336;DHT22;156;48.738;9.228;2023-07-08T09:53:23;26.60;1.00
336;DHT22;156;48.738;9.228;2023-07-08T09:55:52;26.60;1.00
336;DHT22;156;48.738;9.228;2023-07-08T09:58:24;26.70;1.00
336;DHT22;156;48.738;9.228;2023-07-08T10:00:55;26.70;1.00
336;DHT22;156;48.738;9.228;2023-07-08T10:03:28;26.70;1.00
336;DHT22;156;48.738;9.228;2023-07-08T10:05:58;26.70;1.00
336;DHT22;156;48.738;9.228;2023-07-08T10:08:34;26.70;1.00
336;DHT22;156;48.738;9.228;2023-07-08T10:14:09;26.80;1.00
336;DHT22;156;48.738;9.228;2023-07-08T10:16:36;26.70;1.00
336;DHT22;156;48.738;9.228;2023-07-08T10:19:11;26.80;1.00
336;DHT22;156;48.738;9.228;2023-07-08T10:21:47;26.90;1.00
336;DHT22;156;48.738;9.228;2023-07-08T10:24:29;26.80;1.00
336;DHT22;156;48.738;9.228;2023-07-08T10:27:07;26.70;1.00
336;DHT22;156;48.738;9.228;2023-07-08T10:29:44;26.70;1.00
336;DHT22;156;48.738;9.228;2023-07-08T10:32:24;26.70;1.00
336;DHT22;156;48.738;9.228;2023-07-08T10:35:02;26.50;1.00
336;DHT22;156;48.738;9.228;2023-07-08T10:37:37;26.60;1.00
336;DHT22;156;48.738;9.228;2023-07-08T10:40:27;26.60;1.00
336;DHT22;156;48.738;9.228;2023-07-08T10:43:08;26.70;1.00
336;DHT22;156;48.738;9.228;2023-07-08T10:45:41;26.90;1.00
336;DHT22;156;48.738;9.228;2023-07-08T10:48:33;27.00;1.00
336;DHT22;156;48.738;9.228;2023-07-08T10:51:15;26.90;1.00
336;DHT22;156;48.738;9.228;2023-07-08T10:54:01;27.00;1.00
336;DHT22;156;48.738;9.228;2023-07-08T10:56:37;27.00;1.00
336;DHT22;156;48.738;9.228;2023-07-08T10:59:21;27.10;1.00
336;DHT22;156;48.738;9.228;2023-07-08T11:02:14;27.10;1.00
336;DHT22;156;48.738;9.228;2023-07-08T11:04:53;27.20;1.00
336;DHT22;156;48.738;9.228;2023-07-08T11:07:30;27.40;1.00
336;DHT22;156;48.738;9.228;2023-07-08T11:10:02;27.40;1.00
336;DHT22;156;48.738;9.228;2023-07-08T11:12:35;27.70;1.00
336;DHT22;156;48.738;9.228;2023-07-08T11:15:07;27.80;1.00
336;DHT22;156;48.738;9.228;2023-07-08T11:17:47;27.80;1.00
336;DHT22;156;48.738;9.228;2023-07-08T11:20:21;28.00;1.00
336;DHT22;156;48.738;9.228;2023-07-08T11:22:54;28.00;1.00
336;DHT22;156;48.738;9.228;2023-07-08T11:25:25;28.10;1.00
336;DHT22;156;48.738;9.228;2023-07-08T11:27:56;28.40;1.00
336;DHT22;156;48.738;9.228;2023-07-08T11:30:26;28.40;1.00
336;DHT22;156;48.738;9.228;2023-07-08T11:33:02;28.50;1.00
336;DHT22;156;48.738;9.228;2023-07-08T11:35:40;28.70;1.00
336;DHT22;156;48.738;9.228;2023-07-08T11:38:22;28.80;1.00
336;DHT22;156;48.738;9.228;2023-07-08T11:40:52;28.70;1.00
336;DHT22;156;48.738;9.228;2023-07-08T11:43:22;28.50;1.00
336;DHT22;156;48.738;9.228;2023-07-08T11:45:55;28.70;1.00
336;DHT22;156;48.738;9.228;2023-07-08T11:48:27;28.90;1.00
336;DHT22;156;48.738;9.228;2023-07-08T11:50:57;28.80;1.00
336;DHT22;156;48.738;9.228;2023-07-08T11:53:49;28.90;1.00
336;DHT22;156;48.738;9.228;2023-07-08T11:56:47;29.10;1.00
336;DHT22;156;48.738;9.228;2023-07-08T11:59:23;29.10;1.00
336;DHT22;156;48.738;9.228;2023-07-08T12:02:01;29.30;1.00
336;DHT22;156;48.738;9.228;2023-07-08T12:04:31;29.50;1.00
336;DHT22;156;48.738;9.228;2023-07-08T12:07:14;29.60;1.00
336;DHT22;156;48.738;9.228;2023-07-08T12:09:59;29.60;1.00
336;DHT22;156;48.738;9.228;2023-07-08T12:12:31;29.50;1.00
336;DHT22;156;48.738;9.228;2023-07-08T12:15:08;29.60;1.00
336;DHT22;156;48.738;9.228;2023-07-08T12:17:37;29.50;1.00
336;DHT22;156;48.738;9.228;2023-07-08T12:20:10;29.50;1.00
336;DHT22;156;48.738;9.228;2023-07-08T12:22:40;29.50;1.00
336;DHT22;156;48.738;9.228;2023-07-08T12:25:13;29.50;1.00
336;DHT22;156;48.738;9.228;2023-07-08T12:27:44;29.60;1.00
336;DHT22;156;48.738;9.228;2023-07-08T12:30:13;29.70;1.00
336;DHT22;156;48.738;9.228;2023-07-08T12:32:43;29.70;1.00
336;DHT22;156;48.738;9.228;2023-07-08T12:35:19;29.80;1.00
336;DHT22;156;48.738;9.228;2023-07-08T12:37:48;29.80;1.00
336;DHT22;156;48.738;9.228;2023-07-08T12:40:21;29.80;1.00
336;DHT22;156;48.738;9.228;2023-07-08T12:42:48;29.90;1.00
336;DHT22;156;48.738;9.228;2023-07-08T12:45:18;30.00;1.00
336;DHT22;156;48.738;9.228;2023-07-08T12:47:50;30.30;1.00
336;DHT22;156;48.738;9.228;2023-07-08T12:50:18;30.50;1.00
336;DHT22;156;48.738;9.228;2023-07-08T12:52:48;30.80;1.00
336;DHT22;156;48.738;9.228;2023-07-08T12:55:18;30.90;1.00
336;DHT22;156;48.738;9.228;2023-07-08T12:57:52;31.10;1.00
336;DHT22;156;48.738;9.228;2023-07-08T13:00:24;31.80;1.00
336;DHT22;156;48.738;9.228;2023-07-08T13:02:57;32.30;1.00
336;DHT22;156;48.738;9.228;2023-07-08T13:05:26;32.30;1.00
336;DHT22;156;48.738;9.228;2023-07-08T13:07:56;32.50;1.00
336;DHT22;156;48.738;9.228;2023-07-08T13:10:27;32.80;1.00
336;DHT22;156;48.738;9.228;2023-07-08T13:13:06;33.30;1.00
336;DHT22;156;48.738;9.228;2023-07-08T13:15:36;33.50;1.00
336;DHT22;156;48.738;9.228;2023-07-08T13:18:05;34.00;1.00
336;DHT22;156;48.738;9.228;2023-07-08T13:20:40;34.10;1.00
336;DHT22;156;48.738;9.228;2023-07-08T13:23:09;34.00;1.00
336;DHT22;156;48.738;9.228;2023-07-08T13:25:41;34.30;1.00
336;DHT22;156;48.738;9.228;2023-07-08T13:28:17;34.30;1.00
336;DHT22;156;48.738;9.228;2023-07-08T13:30:52;34.10;1.00
336;DHT22;156;48.738;9.228;2023-07-08T13:33:21;34.60;1.00
336;DHT22;156;48.738;9.228;2023-07-08T13:35:50;34.50;1.00
336;DHT22;156;48.738;9.228;2023-07-08T13:38:21;34.70;1.00
336;DHT22;156;48.738;9.228;2023-07-08T13:40:53;34.40;1.00
336;DHT22;156;48.738;9.228;2023-07-08T13:43:23;34.40;1.00
336;DHT22;156;48.738;9.228;2023-07-08T13:45:51;34.50;1.00
336;DHT22;156;48.738;9.228;2023-07-08T13:48:25;34.20;1.00
336;DHT22;156;48.738;9.228;2023-07-08T13:50:57;34.20;1.00
336;DHT22;156;48.738;9.228;2023-07-08T13:53:26;34.40;1.00
336;DHT22;156;48.738;9.228;2023-07-08T13:55:59;34.60;1.00
336;DHT22;156;48.738;9.228;2023-07-08T13:58:29;34.50;1.00
336;DHT22;156;48.738;9.228;2023-07-08T14:00:57;34.30;1.00
336;DHT22;156;48.738;9.228;2023-07-08T14:03:29;34.30;1.00
336;DHT22;156;48.738;9.228;2023-07-08T14:05:57;34.50;1.00
336;DHT22;156;48.738;9.228;2023-07-08T14:08:27;34.80;1.00
336;DHT22;156;48.738;9.228;2023-07-08T14:10:56;35.10;1.00
336;DHT22;156;48.738;9.228;2023-07-08T14:13:27;35.30;1.00
336;DHT22;156;48.738;9.228;2023-07-08T14:15:54;35.10;1.00
336;DHT22;156;48.738;9.228;2023-07-08T14:18:22;35.30;1.00
336;DHT22;156;48.738;9.228;2023-07-08T14:20:50;35.80;1.00
336;DHT22;156;48.738;9.228;2023-07-08T14:23:18;36.00;1.00
336;DHT22;156;48.738;9.228;2023-07-08T14:25:46;35.90;1.00
336;DHT22;156;48.738;9.228;2023-07-08T14:28:16;35.80;1.00
336;DHT22;156;48.738;9.228;2023-07-08T14:30:47;35.80;1.00
336;DHT22;156;48.738;9.228;2023-07-08T14:33:21;35.60;1.00
336;DHT22;156;48.738;9.228;2023-07-08T14:35:48;35.50;1.00
336;DHT22;156;48.738;9.228;2023-07-08T14:38:19;35.50;1.00
336;DHT22;156;48.738;9.228;2023-07-08T14:40:48;35.20;1.00
336;DHT22;156;48.738;9.228;2023-07-08T14:43:27;35.30;1.00
336;DHT22;156;48.738;9.228;2023-07-08T14:45:57;35.50;1.00
336;DHT22;156;48.738;9.228;2023-07-08T14:48:28;35.80;1.00
336;DHT22;156;48.738;9.228;2023-07-08T14:50:58;35.70;1.00
336;DHT22;156;48.738;9.228;2023-07-08T14:53:26;35.70;1.00
336;DHT22;156;48.738;9.228;2023-07-08T14:55:55;35.90;1.00
336;DHT22;156;48.738;9.228;2023-07-08T14:58:27;36.30;1.00
336;DHT22;156;48.738;9.228;2023-07-08T15:01:00;36.60;1.00
336;DHT22;156;48.738;9.228;2023-07-08T15:03:37;36.70;1.00
336;DHT22;156;48.738;9.228;2023-07-08T15:06:08;36.80;1.00
336;DHT22;156;48.738;9.228;2023-07-08T15:08:44;36.90;1.00
336;DHT22;156;48.738;9.228;2023-07-08T15:11:17;36.70;1.00
336;DHT22;156;48.738;9.228;2023-07-08T15:13:45;37.20;1.00
336;DHT22;156;48.738;9.228;2023-07-08T15:16:16;37.60;1.00
336;DHT22;156;48.738;9.228;2023-07-08T15:18:46;37.90;1.00
336;DHT22;156;48.738;9.228;2023-07-08T15:21:15;38.10;1.00
336;DHT22;156;48.738;9.228;2023-07-08T15:23:43;38.20;1.00
336;DHT22;156;48.738;9.228;2023-07-08T15:26:12;38.30;1.00
336;DHT22;156;48.738;9.228;2023-07-08T15:28:42;38.30;1.00
336;DHT22;156;48.738;9.228;2023-07-08T15:31:15;38.50;1.00
336;DHT22;156;48.738;9.228;2023-07-08T15:33:43;38.70;1.00
336;DHT22;156;48.738;9.228;2023-07-08T15:36:11;37.70;1.00
336;DHT22;156;48.738;9.228;2023-07-08T15:38:43;36.90;1.00
336;DHT22;156;48.738;9.228;2023-07-08T15:41:15;36.70;1.00
336;DHT22;156;48.738;9.228;2023-07-08T15:43:49;37.10;1.00
336;DHT22;156;48.738;9.228;2023-07-08T15:46:28;37.60;1.00
336;DHT22;156;48.738;9.228;2023-07-08T15:48:59;37.80;1.00
336;DHT22;156;48.738;9.228;2023-07-08T15:51:27;38.40;1.00
336;DHT22;156;48.738;9.228;2023-07-08T15:53:59;38.30;1.00
336;DHT22;156;48.738;9.228;2023-07-08T15:56:33;38.40;1.00
336;DHT22;156;48.738;9.228;2023-07-08T15:59:04;38.00;1.00
336;DHT22;156;48.738;9.228;2023-07-08T16:01:34;37.50;1.00
336;DHT22;156;48.738;9.228;2023-07-08T16:04:03;37.80;1.00
336;DHT22;156;48.738;9.228;2023-07-08T16:06:31;38.10;1.00
336;DHT22;156;48.738;9.228;2023-07-08T16:09:01;38.90;1.00
336;DHT22;156;48.738;9.228;2023-07-08T16:11:31;38.90;1.00
336;DHT22;156;48.738;9.228;2023-07-08T16:13:59;39.20;1.00
336;DHT22;156;48.738;9.228;2023-07-08T16:16:31;38.50;1.00
336;DHT22;156;48.738;9.228;2023-07-08T16:19:03;38.90;1.00
336;DHT22;156;48.738;9.228;2023-07-08T16:21:30;38.40;1.00
336;DHT22;156;48.738;9.228;2023-07-08T16:23:59;38.20;1.00
336;DHT22;156;48.738;9.228;2023-07-08T16:26:27;38.50;1.00
336;DHT22;156;48.738;9.228;2023-07-08T16:28:58;39.00;1.00
336;DHT22;156;48.738;9.228;2023-07-08T16:31:27;39.90;1.00
336;DHT22;156;48.738;9.228;2023-07-08T16:33:58;40.60;1.00
336;DHT22;156;48.738;9.228;2023-07-08T16:36:29;40.60;1.00
336;DHT22;156;48.738;9.228;2023-07-08T16:38:58;40.70;1.00
336;DHT22;156;48.738;9.228;2023-07-08T16:41:29;41.50;1.00
336;DHT22;156;48.738;9.228;2023-07-08T16:43:57;41.60;1.00
336;DHT22;156;48.738;9.228;2023-07-08T16:46:29;42.20;1.00
336;DHT22;156;48.738;9.228;2023-07-08T16:48:56;42.00;1.00
336;DHT22;156;48.738;9.228;2023-07-08T16:51:27;42.40;1.00
336;DHT22;156;48.738;9.228;2023-07-08T16:53:58;41.90;1.00
336;DHT22;156;48.738;9.228;2023-07-08T16:56:29;42.70;1.00
336;DHT22;156;48.738;9.228;2023-07-08T16:59:02;42.40;1.00
336;DHT22;156;48.738;9.228;2023-07-08T17:01:30;41.50;1.00
336;DHT22;156;48.738;9.228;2023-07-08T17:03:58;41.30;1.00
336;DHT22;156;48.738;9.228;2023-07-08T17:06:30;41.60;1.00
336;DHT22;156;48.738;9.228;2023-07-08T17:08:57;42.70;1.00
336;DHT22;156;48.738;9.228;2023-07-08T17:11:39;42.90;1.00
336;DHT22;156;48.738;9.228;2023-07-08T17:14:10;42.90;1.00
336;DHT22;156;48.738;9.228;2023-07-08T17:16:41;41.20;1.00